sensor_id;sensor_type;location;lat;lon;timestamp;P1;durP1;ratioP1;P2;durP2;ratioP2
65684;SDS011;52405;50.844;-1.062;2023-02-27T00:01:32;8.20;;;2.58;;
65684;SDS011;52405;50.844;-1.062;2023-02-27T00:03:58;7.63;;;2.90;;
65684;SDS011;52405;50.844;-1.062;2023-02-27T00:06:26;4.10;;;2.45;;
65684;SDS011;52405;50.844;-1.062;2023-02-27T00:08:54;6.45;;;3.75;;
65684;SDS011;52405;50.844;-1.062;2023-02-27T00:11:20;9.38;;;3.05;;
65684;SDS011;52405;50.844;-1.062;2023-02-27T00:13:45;6.50;;;2.80;;
65684;SDS011;52405;50.844;-1.062;2023-02-27T00:16:14;7.53;;;2.30;;
65684;SDS011;52405;50.844;-1.062;2023-02-27T00:18:42;4.40;;;2.25;;
65684;SDS011;52405;50.844;-1.062;2023-02-27T00:21:07;7.15;;;3.25;;
65684;SDS011;52405;50.844;-1.062;2023-02-27T00:23:32;5.38;;;2.45;;
65684;SDS011;52405;50.844;-1.062;2023-02-27T00:26:00;8.27;;;2.22;;
65684;SDS011;52405;50.844;-1.062;2023-02-27T00:28:28;4.63;;;2.13;;
65684;SDS011;52405;50.844;-1.062;2023-02-27T00:30:54;5.32;;;1.83;;
65684;SDS011;52405;50.844;-1.062;2023-02-27T00:33:20;6.32;;;3.22;;
65684;SDS011;52405;50.844;-1.062;2023-02-27T00:35:53;4.03;;;1.90;;
65684;SDS011;52405;50.844;-1.062;2023-02-27T00:38:24;5.75;;;2.45;;
65684;SDS011;52405;50.844;-1.062;2023-02-27T00:40:50;4.63;;;1.85;;
65684;SDS011;52405;50.844;-1.062;2023-02-27T00:43:19;4.13;;;1.70;;
65684;SDS011;52405;50.844;-1.062;2023-02-27T00:45:44;3.70;;;2.42;;
65684;SDS011;52405;50.844;-1.062;2023-02-27T00:48:11;5.03;;;2.28;;
65684;SDS011;52405;50.844;-1.062;2023-02-27T00:50:37;4.28;;;1.70;;
65684;SDS011;52405;50.844;-1.062;2023-02-27T00:53:05;5.47;;;2.03;;
65684;SDS011;52405;50.844;-1.062;2023-02-27T00:55:30;5.75;;;2.13;;
65684;SDS011;52405;50.844;-1.062;2023-02-27T00:57:56;7.70;;;2.38;;
65684;SDS011;52405;50.844;-1.062;2023-02-27T01:00:23;5.07;;;2.25;;
65684;SDS011;52405;50.844;-1.062;2023-02-27T01:02:51;3.55;;;2.00;;
65684;SDS011;52405;50.844;-1.062;2023-02-27T01:05:17;4.13;;;2.60;;
65684;SDS011;52405;50.844;-1.062;2023-02-27T01:07:47;4.53;;;1.92;;
65684;SDS011;52405;50.844;-1.062;2023-02-27T01:10:13;2.17;;;1.30;;
65684;SDS011;52405;50.844;-1.062;2023-02-27T01:12:38;4.55;;;1.52;;
65684;SDS011;52405;50.844;-1.062;2023-02-27T01:15:04;7.15;;;2.03;;
65684;SDS011;52405;50.844;-1.062;2023-02-27T01:17:33;11.77;;;3.67;;
65684;SDS011;52405;50.844;-1.062;2023-02-27T01:19:58;9.90;;;2.00;;
65684;SDS011;52405;50.844;-1.062;2023-02-27T01:22:24;3.88;;;1.58;;
65684;SDS011;52405;50.844;-1.062;2023-02-27T01:24:49;4.57;;;1.98;;
65684;SDS011;52405;50.844;-1.062;2023-02-27T01:27:17;7.60;;;2.17;;
65684;SDS011;52405;50.844;-1.062;2023-02-27T01:29:45;8.68;;;1.77;;
65684;SDS011;52405;50.844;-1.062;2023-02-27T01:32:11;3.10;;;2.15;;
65684;SDS011;52405;50.844;-1.062;2023-02-27T01:34:36;5.88;;;1.83;;
65684;SDS011;52405;50.844;-1.062;2023-02-27T01:37:01;7.57;;;2.22;;
65684;SDS011;52405;50.844;-1.062;2023-02-27T01:39:31;7.10;;;1.45;;
65684;SDS011;52405;50.844;-1.062;2023-02-27T01:41:57;6.90;;;2.08;;
65684;SDS011;52405;50.844;-1.062;2023-02-27T01:44:25;4.95;;;1.58;;
65684;SDS011;52405;50.844;-1.062;2023-02-27T01:46:53;3.85;;;1.27;;
65684;SDS011;52405;50.844;-1.062;2023-02-27T01:49:28;5.30;;;1.90;;
65684;SDS011;52405;50.844;-1.062;2023-02-27T01:51:58;6.72;;;2.22;;
65684;SDS011;52405;50.844;-1.062;2023-02-27T01:54:35;5.63;;;1.52;;
65684;SDS011;52405;50.844;-1.062;2023-02-27T01:57:04;3.33;;;1.23;;
65684;SDS011;52405;50.844;-1.062;2023-02-27T01:59:32;5.00;;;1.70;;
65684;SDS011;52405;50.844;-1.062;2023-02-27T02:01:58;3.22;;;1.92;;
65684;SDS011;52405;50.844;-1.062;2023-02-27T02:04:27;8.57;;;2.42;;
65684;SDS011;52405;50.844;-1.062;2023-02-27T02:07:00;4.28;;;1.52;;
65684;SDS011;52405;50.844;-1.062;2023-02-27T02:09:29;2.85;;;1.10;;
65684;SDS011;52405;50.844;-1.062;2023-02-27T02:11:59;2.55;;;1.30;;
65684;SDS011;52405;50.844;-1.062;2023-02-27T02:14:27;5.80;;;1.35;;
65684;SDS011;52405;50.844;-1.062;2023-02-27T02:27:20;3.13;;;1.35;;
65684;SDS011;52405;50.844;-1.062;2023-02-27T02:29:58;1.73;;;1.20;;
65684;SDS011;52405;50.844;-1.062;2023-02-27T02:44:03;3.10;;;1.10;;
65684;SDS011;52405;50.844;-1.062;2023-02-27T02:49:30;5.10;;;2.35;;
65684;SDS011;52405;50.844;-1.062;2023-02-27T02:52:10;3.78;;;1.95;;
65684;SDS011;52405;50.844;-1.062;2023-02-27T02:54:56;2.20;;;0.90;;
65684;SDS011;52405;50.844;-1.062;2023-02-27T02:58:13;2.88;;;1.67;;
65684;SDS011;52405;50.844;-1.062;2023-02-27T03:00:36;4.28;;;1.50;;
65684;SDS011;52405;50.844;-1.062;2023-02-27T03:03:29;1.38;;;0.60;;
65684;SDS011;52405;50.844;-1.062;2023-02-27T03:06:05;1.63;;;1.23;;
65684;SDS011;52405;50.844;-1.062;2023-02-27T03:08:39;2.15;;;1.38;;
65684;SDS011;52405;50.844;-1.062;2023-02-27T03:11:11;4.88;;;1.90;;
65684;SDS011;52405;50.844;-1.062;2023-02-27T03:16:20;5.10;;;1.65;;
65684;SDS011;52405;50.844;-1.062;2023-02-27T03:21:24;5.10;;;1.27;;
65684;SDS011;52405;50.844;-1.062;2023-02-27T03:23:56;8.57;;;2.15;;
65684;SDS011;52405;50.844;-1.062;2023-02-27T03:26:28;5.47;;;2.38;;
65684;SDS011;52405;50.844;-1.062;2023-02-27T03:29:05;8.43;;;2.60;;
65684;SDS011;52405;50.844;-1.062;2023-02-27T03:31:47;2.95;;;0.82;;
65684;SDS011;52405;50.844;-1.062;2023-02-27T03:34:32;4.28;;;1.52;;
65684;SDS011;52405;50.844;-1.062;2023-02-27T03:37:00;4.82;;;1.45;;
65684;SDS011;52405;50.844;-1.062;2023-02-27T03:39:36;7.05;;;1.20;;
65684;SDS011;52405;50.844;-1.062;2023-02-27T03:44:50;2.90;;;1.75;;
65684;SDS011;52405;50.844;-1.062;2023-02-27T03:47:20;4.07;;;1.50;;
65684;SDS011;52405;50.844;-1.062;2023-02-27T03:49:46;3.45;;;1.08;;
65684;SDS011;52405;50.844;-1.062;2023-02-27T03:52:18;2.25;;;1.20;;
65684;SDS011;52405;50.844;-1.062;2023-02-27T03:57:32;6.25;;;1.38;;
65684;SDS011;52405;50.844;-1.062;2023-02-27T04:00:02;5.05;;;1.75;;
65684;SDS011;52405;50.844;-1.062;2023-02-27T04:02:32;3.83;;;0.85;;
65684;SDS011;52405;50.844;-1.062;2023-02-27T04:04:57;9.15;;;1.13;;
65684;SDS011;52405;50.844;-1.062;2023-02-27T04:15:42;2.38;;;1.08;;
65684;SDS011;52405;50.844;-1.062;2023-02-27T04:18:16;1.90;;;0.80;;
65684;SDS011;52405;50.844;-1.062;2023-02-27T04:23:42;1.90;;;1.17;;
65684;SDS011;52405;50.844;-1.062;2023-02-27T04:31:52;6.38;;;1.52;;
65684;SDS011;52405;50.844;-1.062;2023-02-27T04:39:47;7.00;;;1.80;;
65684;SDS011;52405;50.844;-1.062;2023-02-27T04:42:18;5.55;;;0.95;;
65684;SDS011;52405;50.844;-1.062;2023-02-27T04:44:49;3.15;;;1.13;;
65684;SDS011;52405;50.844;-1.062;2023-02-27T04:47:21;5.45;;;1.70;;
65684;SDS011;52405;50.844;-1.062;2023-02-27T04:49:50;3.38;;;0.90;;
65684;SDS011;52405;50.844;-1.062;2023-02-27T04:52:23;3.95;;;1.80;;
65684;SDS011;52405;50.844;-1.062;2023-02-27T04:57:20;8.02;;;1.20;;
65684;SDS011;52405;50.844;-1.062;2023-02-27T04:59:51;3.65;;;1.55;;
65684;SDS011;52405;50.844;-1.062;2023-02-27T05:02:23;2.08;;;1.08;;
65684;SDS011;52405;50.844;-1.062;2023-02-27T05:04:57;6.68;;;1.80;;
65684;SDS011;52405;50.844;-1.062;2023-02-27T05:07:30;3.95;;;0.98;;
65684;SDS011;52405;50.844;-1.062;2023-02-27T05:10:05;2.63;;;1.00;;
65684;SDS011;52405;50.844;-1.062;2023-02-27T05:12:39;5.25;;;1.40;;
65684;SDS011;52405;50.844;-1.062;2023-02-27T05:15:14;5.43;;;0.90;;
65684;SDS011;52405;50.844;-1.062;2023-02-27T05:17:47;9.02;;;1.17;;
65684;SDS011;52405;50.844;-1.062;2023-02-27T05:20:16;5.85;;;1.90;;
65684;SDS011;52405;50.844;-1.062;2023-02-27T05:22:52;4.55;;;1.70;;
65684;SDS011;52405;50.844;-1.062;2023-02-27T05:28:24;3.60;;;1.23;;
65684;SDS011;52405;50.844;-1.062;2023-02-27T05:33:42;8.93;;;2.13;;
65684;SDS011;52405;50.844;-1.062;2023-02-27T05:37:03;7.20;;;1.65;;
65684;SDS011;52405;50.844;-1.062;2023-02-27T05:39:15;6.45;;;1.55;;
65684;SDS011;52405;50.844;-1.062;2023-02-27T05:41:46;3.35;;;1.20;;
65684;SDS011;52405;50.844;-1.062;2023-02-27T05:44:22;8.85;;;1.50;;
65684;SDS011;52405;50.844;-1.062;2023-02-27T05:46:55;8.10;;;1.67;;
65684;SDS011;52405;50.844;-1.062;2023-02-27T05:49:29;6.72;;;1.00;;
65684;SDS011;52405;50.844;-1.062;2023-02-27T05:52:02;3.78;;;1.00;;
65684;SDS011;52405;50.844;-1.062;2023-02-27T05:54:53;7.63;;;1.48;;
65684;SDS011;52405;50.844;-1.062;2023-02-27T05:57:19;7.95;;;2.45;;
65684;SDS011;52405;50.844;-1.062;2023-02-27T06:02:39;2.55;;;1.30;;
65684;SDS011;52405;50.844;-1.062;2023-02-27T06:05:06;6.32;;;1.17;;
65684;SDS011;52405;50.844;-1.062;2023-02-27T06:07:33;2.92;;;1.55;;
65684;SDS011;52405;50.844;-1.062;2023-02-27T06:09:59;3.42;;;1.33;;
65684;SDS011;52405;50.844;-1.062;2023-02-27T06:12:24;3.70;;;1.33;;
65684;SDS011;52405;50.844;-1.062;2023-02-27T06:14:50;9.70;;;1.58;;
65684;SDS011;52405;50.844;-1.062;2023-02-27T06:17:15;6.43;;;2.30;;
65684;SDS011;52405;50.844;-1.062;2023-02-27T06:19:41;3.72;;;1.60;;
65684;SDS011;52405;50.844;-1.062;2023-02-27T06:22:07;7.43;;;1.65;;
65684;SDS011;52405;50.844;-1.062;2023-02-27T06:24:36;2.10;;;1.60;;
65684;SDS011;52405;50.844;-1.062;2023-02-27T06:27:02;3.45;;;1.70;;
65684;SDS011;52405;50.844;-1.062;2023-02-27T06:29:28;5.60;;;1.55;;
65684;SDS011;52405;50.844;-1.062;2023-02-27T06:31:54;5.97;;;1.60;;
65684;SDS011;52405;50.844;-1.062;2023-02-27T06:34:19;5.00;;;1.63;;
65684;SDS011;52405;50.844;-1.062;2023-02-27T06:36:45;7.18;;;1.83;;
65684;SDS011;52405;50.844;-1.062;2023-02-27T06:39:13;7.43;;;1.70;;
65684;SDS011;52405;50.844;-1.062;2023-02-27T06:41:38;2.55;;;1.45;;
65684;SDS011;52405;50.844;-1.062;2023-02-27T06:44:04;4.78;;;1.60;;
65684;SDS011;52405;50.844;-1.062;2023-02-27T06:46:32;4.15;;;1.17;;
65684;SDS011;52405;50.844;-1.062;2023-02-27T06:48:57;3.92;;;1.33;;
65684;SDS011;52405;50.844;-1.062;2023-02-27T06:51:23;7.47;;;2.08;;
65684;SDS011;52405;50.844;-1.062;2023-02-27T06:53:48;9.60;;;1.60;;
65684;SDS011;52405;50.844;-1.062;2023-02-27T06:56:14;6.15;;;1.83;;
65684;SDS011;52405;50.844;-1.062;2023-02-27T06:58:42;5.07;;;1.80;;
65684;SDS011;52405;50.844;-1.062;2023-02-27T07:01:09;11.23;;;3.13;;
65684;SDS011;52405;50.844;-1.062;2023-02-27T07:03:36;6.90;;;1.35;;
65684;SDS011;52405;50.844;-1.062;2023-02-27T07:06:01;5.03;;;2.20;;
65684;SDS011;52405;50.844;-1.062;2023-02-27T07:08:27;6.35;;;1.80;;
65684;SDS011;52405;50.844;-1.062;2023-02-27T07:10:54;8.82;;;1.95;;
65684;SDS011;52405;50.844;-1.062;2023-02-27T07:13:19;2.65;;;1.35;;
65684;SDS011;52405;50.844;-1.062;2023-02-27T07:15:47;7.03;;;2.00;;
65684;SDS011;52405;50.844;-1.062;2023-02-27T07:18:14;6.20;;;2.40;;
65684;SDS011;52405;50.844;-1.062;2023-02-27T07:20:40;4.20;;;1.73;;
65684;SDS011;52405;50.844;-1.062;2023-02-27T07:23:05;4.90;;;1.88;;
65684;SDS011;52405;50.844;-1.062;2023-02-27T07:25:31;7.18;;;1.85;;
65684;SDS011;52405;50.844;-1.062;2023-02-27T07:27:56;7.82;;;1.75;;
65684;SDS011;52405;50.844;-1.062;2023-02-27T07:30:22;4.03;;;1.90;;
65684;SDS011;52405;50.844;-1.062;2023-02-27T07:32:50;2.70;;;1.60;;
65684;SDS011;52405;50.844;-1.062;2023-02-27T07:35:15;6.05;;;2.42;;
65684;SDS011;52405;50.844;-1.062;2023-02-27T07:37:41;3.53;;;1.98;;
65684;SDS011;52405;50.844;-1.062;2023-02-27T07:40:10;5.07;;;1.95;;
65684;SDS011;52405;50.844;-1.062;2023-02-27T07:42:36;7.57;;;3.10;;
65684;SDS011;52405;50.844;-1.062;2023-02-27T07:45:01;7.50;;;2.33;;
65684;SDS011;52405;50.844;-1.062;2023-02-27T07:47:27;5.25;;;2.33;;
65684;SDS011;52405;50.844;-1.062;2023-02-27T07:49:54;4.72;;;1.92;;
65684;SDS011;52405;50.844;-1.062;2023-02-27T07:52:25;3.20;;;1.90;;
65684;SDS011;52405;50.844;-1.062;2023-02-27T07:54:50;6.88;;;4.03;;
65684;SDS011;52405;50.844;-1.062;2023-02-27T07:57:16;5.75;;;2.35;;
65684;SDS011;52405;50.844;-1.062;2023-02-27T07:59:42;5.32;;;2.00;;
65684;SDS011;52405;50.844;-1.062;2023-02-27T08:02:10;5.95;;;2.30;;
65684;SDS011;52405;50.844;-1.062;2023-02-27T08:04:38;4.65;;;2.70;;
65684;SDS011;52405;50.844;-1.062;2023-02-27T08:07:06;5.00;;;2.45;;
65684;SDS011;52405;50.844;-1.062;2023-02-27T08:09:32;8.90;;;3.22;;
65684;SDS011;52405;50.844;-1.062;2023-02-27T08:11:57;6.47;;;2.22;;
65684;SDS011;52405;50.844;-1.062;2023-02-27T08:14:23;3.78;;;2.08;;
65684;SDS011;52405;50.844;-1.062;2023-02-27T08:16:50;6.50;;;2.03;;
65684;SDS011;52405;50.844;-1.062;2023-02-27T08:19:15;7.13;;;2.92;;
65684;SDS011;52405;50.844;-1.062;2023-02-27T08:21:41;10.45;;;3.65;;
65684;SDS011;52405;50.844;-1.062;2023-02-27T08:24:09;7.50;;;1.73;;
65684;SDS011;52405;50.844;-1.062;2023-02-27T08:26:34;7.68;;;2.20;;
65684;SDS011;52405;50.844;-1.062;2023-02-27T08:29:00;12.63;;;3.55;;
65684;SDS011;52405;50.844;-1.062;2023-02-27T08:31:25;5.95;;;1.90;;
65684;SDS011;52405;50.844;-1.062;2023-02-27T08:33:51;10.82;;;2.30;;
65684;SDS011;52405;50.844;-1.062;2023-02-27T08:36:19;6.85;;;2.00;;
65684;SDS011;52405;50.844;-1.062;2023-02-27T08:38:44;3.55;;;1.95;;
65684;SDS011;52405;50.844;-1.062;2023-02-27T08:41:10;9.63;;;2.67;;
65684;SDS011;52405;50.844;-1.062;2023-02-27T08:43:35;8.82;;;3.15;;
65684;SDS011;52405;50.844;-1.062;2023-02-27T08:46:00;7.65;;;2.35;;
65684;SDS011;52405;50.844;-1.062;2023-02-27T08:48:28;6.03;;;2.25;;
65684;SDS011;52405;50.844;-1.062;2023-02-27T08:50:53;8.85;;;2.13;;
65684;SDS011;52405;50.844;-1.062;2023-02-27T08:53:19;8.35;;;3.50;;
65684;SDS011;52405;50.844;-1.062;2023-02-27T08:55:50;6.63;;;3.05;;
65684;SDS011;52405;50.844;-1.062;2023-02-27T08:58:16;4.20;;;1.70;;
65684;SDS011;52405;50.844;-1.062;2023-02-27T09:00:44;4.82;;;1.58;;
65684;SDS011;52405;50.844;-1.062;2023-02-27T09:03:12;8.13;;;2.60;;
65684;SDS011;52405;50.844;-1.062;2023-02-27T09:05:38;7.35;;;1.80;;
65684;SDS011;52405;50.844;-1.062;2023-02-27T09:08:04;8.50;;;2.63;;
65684;SDS011;52405;50.844;-1.062;2023-02-27T09:10:33;7.95;;;2.20;;
65684;SDS011;52405;50.844;-1.062;2023-02-27T09:13:01;9.35;;;2.78;;
65684;SDS011;52405;50.844;-1.062;2023-02-27T09:15:29;3.88;;;2.17;;
65684;SDS011;52405;50.844;-1.062;2023-02-27T09:17:56;8.30;;;2.17;;
65684;SDS011;52405;50.844;-1.062;2023-02-27T09:20:26;5.13;;;2.22;;
65684;SDS011;52405;50.844;-1.062;2023-02-27T09:22:55;7.75;;;2.30;;
65684;SDS011;52405;50.844;-1.062;2023-02-27T09:25:21;5.90;;;1.95;;
65684;SDS011;52405;50.844;-1.062;2023-02-27T09:27:50;3.45;;;1.77;;
65684;SDS011;52405;50.844;-1.062;2023-02-27T09:30:16;5.03;;;2.50;;
65684;SDS011;52405;50.844;-1.062;2023-02-27T09:32:41;8.00;;;2.15;;
65684;SDS011;52405;50.844;-1.062;2023-02-27T09:35:09;5.22;;;2.00;;
65684;SDS011;52405;50.844;-1.062;2023-02-27T09:37:35;7.85;;;3.22;;
65684;SDS011;52405;50.844;-1.062;2023-02-27T09:40:02;6.70;;;2.47;;
65684;SDS011;52405;50.844;-1.062;2023-02-27T09:42:39;9.88;;;2.60;;
65684;SDS011;52405;50.844;-1.062;2023-02-27T09:45:21;4.20;;;1.80;;
65684;SDS011;52405;50.844;-1.062;2023-02-27T09:48:00;10.70;;;3.58;;
65684;SDS011;52405;50.844;-1.062;2023-02-27T09:50:39;6.05;;;1.92;;
65684;SDS011;52405;50.844;-1.062;2023-02-27T09:53:08;7.35;;;2.47;;
65684;SDS011;52405;50.844;-1.062;2023-02-27T09:55:39;13.25;;;3.15;;
65684;SDS011;52405;50.844;-1.062;2023-02-27T10:04:00;15.95;;;2.97;;
65684;SDS011;52405;50.844;-1.062;2023-02-27T10:06:46;12.98;;;3.67;;
65684;SDS011;52405;50.844;-1.062;2023-02-27T10:15:24;5.55;;;1.70;;
65684;SDS011;52405;50.844;-1.062;2023-02-27T10:17:59;5.70;;;2.40;;
65684;SDS011;52405;50.844;-1.062;2023-02-27T10:20:34;4.90;;;2.40;;
65684;SDS011;52405;50.844;-1.062;2023-02-27T10:23:11;6.88;;;2.20;;
65684;SDS011;52405;50.844;-1.062;2023-02-27T10:25:45;10.77;;;2.88;;
65684;SDS011;52405;50.844;-1.062;2023-02-27T10:28:17;7.80;;;2.03;;
65684;SDS011;52405;50.844;-1.062;2023-02-27T10:30:53;10.40;;;2.28;;
65684;SDS011;52405;50.844;-1.062;2023-02-27T10:36:04;8.82;;;2.63;;
65684;SDS011;52405;50.844;-1.062;2023-02-27T10:39:17;7.10;;;1.80;;
65684;SDS011;52405;50.844;-1.062;2023-02-27T10:41:26;7.80;;;1.85;;
65684;SDS011;52405;50.844;-1.062;2023-02-27T10:43:56;5.63;;;2.80;;
65684;SDS011;52405;50.844;-1.062;2023-02-27T10:48:51;6.05;;;2.67;;
65684;SDS011;52405;50.844;-1.062;2023-02-27T10:53:45;6.13;;;1.75;;
65684;SDS011;52405;50.844;-1.062;2023-02-27T10:56:15;6.07;;;1.92;;
65684;SDS011;52405;50.844;-1.062;2023-02-27T10:59:34;3.97;;;1.40;;
65684;SDS011;52405;50.844;-1.062;2023-02-27T11:02:00;7.95;;;1.20;;
65684;SDS011;52405;50.844;-1.062;2023-02-27T11:04:30;7.38;;;1.83;;
65684;SDS011;52405;50.844;-1.062;2023-02-27T11:07:05;7.47;;;1.65;;
65684;SDS011;52405;50.844;-1.062;2023-02-27T11:09:34;2.78;;;1.40;;
65684;SDS011;52405;50.844;-1.062;2023-02-27T11:17:21;6.93;;;1.55;;
65684;SDS011;52405;50.844;-1.062;2023-02-27T11:19:51;7.05;;;1.75;;
65684;SDS011;52405;50.844;-1.062;2023-02-27T11:22:21;5.25;;;1.67;;
65684;SDS011;52405;50.844;-1.062;2023-02-27T11:24:48;6.75;;;2.42;;
65684;SDS011;52405;50.844;-1.062;2023-02-27T11:32:43;5.47;;;1.30;;
65684;SDS011;52405;50.844;-1.062;2023-02-27T11:37:50;7.28;;;1.92;;
65684;SDS011;52405;50.844;-1.062;2023-02-27T11:40:18;4.78;;;1.55;;
65684;SDS011;52405;50.844;-1.062;2023-02-27T11:42:54;2.55;;;1.52;;
65684;SDS011;52405;50.844;-1.062;2023-02-27T11:48:08;9.75;;;1.63;;
65684;SDS011;52405;50.844;-1.062;2023-02-27T11:51:19;3.65;;;0.98;;
65684;SDS011;52405;50.844;-1.062;2023-02-27T11:56:33;5.40;;;1.60;;
65684;SDS011;52405;50.844;-1.062;2023-02-27T11:59:15;5.82;;;1.42;;
65684;SDS011;52405;50.844;-1.062;2023-02-27T12:04:49;6.80;;;1.83;;
65684;SDS011;52405;50.844;-1.062;2023-02-27T12:10:05;6.22;;;1.67;;
65684;SDS011;52405;50.844;-1.062;2023-02-27T12:18:06;5.68;;;1.80;;
65684;SDS011;52405;50.844;-1.062;2023-02-27T12:20:49;3.97;;;1.80;;
65684;SDS011;52405;50.844;-1.062;2023-02-27T12:23:25;6.45;;;1.77;;
65684;SDS011;52405;50.844;-1.062;2023-02-27T12:26:00;7.38;;;2.05;;
65684;SDS011;52405;50.844;-1.062;2023-02-27T12:28:36;4.03;;;1.58;;
65684;SDS011;52405;50.844;-1.062;2023-02-27T12:36:52;3.38;;;1.40;;
65684;SDS011;52405;50.844;-1.062;2023-02-27T12:39:19;5.55;;;1.35;;
65684;SDS011;52405;50.844;-1.062;2023-02-27T12:45:16;5.07;;;1.60;;
65684;SDS011;52405;50.844;-1.062;2023-02-27T12:56:48;3.25;;;1.50;;
65684;SDS011;52405;50.844;-1.062;2023-02-27T13:01:50;4.60;;;1.20;;
65684;SDS011;52405;50.844;-1.062;2023-02-27T13:07:22;6.90;;;1.52;;
65684;SDS011;52405;50.844;-1.062;2023-02-27T13:09:58;4.93;;;1.73;;
65684;SDS011;52405;50.844;-1.062;2023-02-27T13:12:35;5.63;;;1.10;;
65684;SDS011;52405;50.844;-1.062;2023-02-27T13:15:14;4.32;;;1.95;;
65684;SDS011;52405;50.844;-1.062;2023-02-27T13:18:49;5.15;;;1.60;;
65684;SDS011;52405;50.844;-1.062;2023-02-27T13:20:48;3.45;;;2.25;;
65684;SDS011;52405;50.844;-1.062;2023-02-27T13:26:02;6.80;;;1.30;;
65684;SDS011;52405;50.844;-1.062;2023-02-27T13:28:38;5.40;;;1.52;;
65684;SDS011;52405;50.844;-1.062;2023-02-27T13:31:05;2.35;;;1.05;;
65684;SDS011;52405;50.844;-1.062;2023-02-27T13:36:14;4.20;;;1.08;;
65684;SDS011;52405;50.844;-1.062;2023-02-27T13:38:47;5.15;;;1.25;;
65684;SDS011;52405;50.844;-1.062;2023-02-27T13:48:54;7.45;;;1.42;;
65684;SDS011;52405;50.844;-1.062;2023-02-27T13:59:11;7.93;;;1.50;;
65684;SDS011;52405;50.844;-1.062;2023-02-27T14:01:37;2.10;;;1.50;;
65684;SDS011;52405;50.844;-1.062;2023-02-27T14:04:06;4.30;;;0.80;;
65684;SDS011;52405;50.844;-1.062;2023-02-27T14:06:32;6.18;;;1.60;;
65684;SDS011;52405;50.844;-1.062;2023-02-27T14:09:07;8.60;;;2.65;;
65684;SDS011;52405;50.844;-1.062;2023-02-27T14:11:36;4.20;;;1.77;;
65684;SDS011;52405;50.844;-1.062;2023-02-27T14:14:05;5.30;;;1.45;;
65684;SDS011;52405;50.844;-1.062;2023-02-27T14:24:15;4.68;;;2.15;;
65684;SDS011;52405;50.844;-1.062;2023-02-27T14:26:42;8.55;;;2.33;;
65684;SDS011;52405;50.844;-1.062;2023-02-27T14:29:28;9.65;;;4.75;;
65684;SDS011;52405;50.844;-1.062;2023-02-27T14:31:58;5.40;;;2.70;;
65684;SDS011;52405;50.844;-1.062;2023-02-27T14:34:26;8.70;;;4.20;;
65684;SDS011;52405;50.844;-1.062;2023-02-27T14:36:53;3.63;;;1.52;;
65684;SDS011;52405;50.844;-1.062;2023-02-27T14:44:21;4.35;;;1.98;;
65684;SDS011;52405;50.844;-1.062;2023-02-27T14:46:48;6.88;;;1.90;;
65684;SDS011;52405;50.844;-1.062;2023-02-27T14:51:46;5.40;;;1.70;;
65684;SDS011;52405;50.844;-1.062;2023-02-27T14:54:13;8.60;;;2.95;;
65684;SDS011;52405;50.844;-1.062;2023-02-27T14:56:44;4.40;;;1.42;;
65684;SDS011;52405;50.844;-1.062;2023-02-27T14:59:44;5.85;;;1.23;;
65684;SDS011;52405;50.844;-1.062;2023-02-27T15:04:54;4.25;;;1.00;;
65684;SDS011;52405;50.844;-1.062;2023-02-27T15:07:40;3.95;;;1.65;;
65684;SDS011;52405;50.844;-1.062;2023-02-27T15:10:15;5.13;;;1.33;;
65684;SDS011;52405;50.844;-1.062;2023-02-27T15:12:50;5.45;;;1.30;;
65684;SDS011;52405;50.844;-1.062;2023-02-27T15:15:17;4.47;;;1.48;;
65684;SDS011;52405;50.844;-1.062;2023-02-27T15:17:49;4.30;;;0.80;;
65684;SDS011;52405;50.844;-1.062;2023-02-27T15:23:00;3.40;;;1.00;;
65684;SDS011;52405;50.844;-1.062;2023-02-27T15:25:43;1.47;;;0.93;;
65684;SDS011;52405;50.844;-1.062;2023-02-27T15:28:22;4.03;;;1.10;;
65684;SDS011;52405;50.844;-1.062;2023-02-27T15:30:52;9.82;;;2.47;;
65684;SDS011;52405;50.844;-1.062;2023-02-27T15:33:30;3.92;;;1.00;;
65684;SDS011;52405;50.844;-1.062;2023-02-27T15:35:57;3.58;;;1.02;;
65684;SDS011;52405;50.844;-1.062;2023-02-27T15:38:29;6.70;;;1.15;;
65684;SDS011;52405;50.844;-1.062;2023-02-27T15:40:59;2.05;;;1.58;;
65684;SDS011;52405;50.844;-1.062;2023-02-27T15:43:26;9.88;;;4.28;;
65684;SDS011;52405;50.844;-1.062;2023-02-27T15:45:54;5.38;;;1.23;;
65684;SDS011;52405;50.844;-1.062;2023-02-27T15:48:22;5.35;;;2.72;;
65684;SDS011;52405;50.844;-1.062;2023-02-27T15:51:07;5.30;;;1.70;;
65684;SDS011;52405;50.844;-1.062;2023-02-27T15:53:34;4.32;;;2.03;;
65684;SDS011;52405;50.844;-1.062;2023-02-27T15:56:00;4.55;;;1.23;;
65684;SDS011;52405;50.844;-1.062;2023-02-27T15:58:32;7.13;;;0.93;;
65684;SDS011;52405;50.844;-1.062;2023-02-27T16:01:17;5.80;;;2.25;;
65684;SDS011;52405;50.844;-1.062;2023-02-27T16:03:48;12.13;;;2.63;;
65684;SDS011;52405;50.844;-1.062;2023-02-27T16:06:17;6.32;;;1.42;;
65684;SDS011;52405;50.844;-1.062;2023-02-27T16:08:57;5.68;;;1.75;;
65684;SDS011;52405;50.844;-1.062;2023-02-27T16:11:29;3.58;;;1.27;;
65684;SDS011;52405;50.844;-1.062;2023-02-27T16:14:02;4.90;;;2.45;;
65684;SDS011;52405;50.844;-1.062;2023-02-27T16:19:01;3.58;;;1.27;;
65684;SDS011;52405;50.844;-1.062;2023-02-27T16:24:31;4.18;;;2.28;;
65684;SDS011;52405;50.844;-1.062;2023-02-27T16:26:57;6.15;;;2.03;;
65684;SDS011;52405;50.844;-1.062;2023-02-27T16:29:32;5.82;;;2.33;;
65684;SDS011;52405;50.844;-1.062;2023-02-27T16:32:00;11.50;;;4.72;;
65684;SDS011;52405;50.844;-1.062;2023-02-27T16:37:04;8.93;;;3.55;;
65684;SDS011;52405;50.844;-1.062;2023-02-27T16:39:43;19.83;;;8.00;;
65684;SDS011;52405;50.844;-1.062;2023-02-27T16:42:08;14.45;;;6.35;;
65684;SDS011;52405;50.844;-1.062;2023-02-27T16:44:34;8.18;;;3.50;;
65684;SDS011;52405;50.844;-1.062;2023-02-27T16:46:59;13.63;;;5.28;;
65684;SDS011;52405;50.844;-1.062;2023-02-27T16:49:27;23.95;;;8.55;;
65684;SDS011;52405;50.844;-1.062;2023-02-27T16:51:54;14.27;;;3.92;;
65684;SDS011;52405;50.844;-1.062;2023-02-27T16:54:20;22.35;;;6.00;;
65684;SDS011;52405;50.844;-1.062;2023-02-27T16:56:48;9.63;;;4.43;;
65684;SDS011;52405;50.844;-1.062;2023-02-27T16:59:22;26.95;;;8.50;;
65684;SDS011;52405;50.844;-1.062;2023-02-27T17:01:58;7.40;;;3.92;;
65684;SDS011;52405;50.844;-1.062;2023-02-27T17:04:27;18.90;;;7.30;;
65684;SDS011;52405;50.844;-1.062;2023-02-27T17:06:54;12.55;;;4.53;;
65684;SDS011;52405;50.844;-1.062;2023-02-27T17:09:25;17.63;;;6.38;;
65684;SDS011;52405;50.844;-1.062;2023-02-27T17:11:52;14.32;;;6.00;;
65684;SDS011;52405;50.844;-1.062;2023-02-27T17:14:18;9.75;;;3.13;;
65684;SDS011;52405;50.844;-1.062;2023-02-27T17:16:44;12.27;;;6.35;;
65684;SDS011;52405;50.844;-1.062;2023-02-27T17:19:12;5.95;;;2.47;;
65684;SDS011;52405;50.844;-1.062;2023-02-27T17:21:41;4.03;;;1.75;;
65684;SDS011;52405;50.844;-1.062;2023-02-27T17:24:06;8.85;;;2.90;;
65684;SDS011;52405;50.844;-1.062;2023-02-27T17:26:33;11.05;;;3.63;;
65684;SDS011;52405;50.844;-1.062;2023-02-27T17:28:59;14.93;;;8.32;;
65684;SDS011;52405;50.844;-1.062;2023-02-27T17:31:26;18.20;;;7.00;;
65684;SDS011;52405;50.844;-1.062;2023-02-27T17:33:54;6.43;;;3.70;;
65684;SDS011;52405;50.844;-1.062;2023-02-27T17:36:20;8.10;;;3.83;;
65684;SDS011;52405;50.844;-1.062;2023-02-27T17:38:46;8.50;;;3.95;;
65684;SDS011;52405;50.844;-1.062;2023-02-27T17:41:13;10.57;;;4.18;;
65684;SDS011;52405;50.844;-1.062;2023-02-27T17:43:39;11.93;;;4.45;;
65684;SDS011;52405;50.844;-1.062;2023-02-27T17:46:06;9.95;;;4.55;;
65684;SDS011;52405;50.844;-1.062;2023-02-27T17:48:33;14.35;;;5.07;;
65684;SDS011;52405;50.844;-1.062;2023-02-27T17:51:06;19.63;;;10.15;;
65684;SDS011;52405;50.844;-1.062;2023-02-27T17:53:33;54.38;;;22.15;;
65684;SDS011;52405;50.844;-1.062;2023-02-27T17:55:59;48.15;;;17.75;;
65684;SDS011;52405;50.844;-1.062;2023-02-27T17:58:25;22.33;;;9.73;;
65684;SDS011;52405;50.844;-1.062;2023-02-27T18:00:50;30.70;;;13.55;;
65684;SDS011;52405;50.844;-1.062;2023-02-27T18:03:19;44.15;;;18.83;;